sensor_id;sensor_type;location;lat;lon;timestamp;pressure;altitude;pressure_sealevel;temperature;humidity
11710;BME280;5911;51.036;6.972;2022-10-16T00:01:12;100233.56;;;15.53;100.00
11710;BME280;5911;51.036;6.972;2022-10-16T00:03:40;100238.19;;;15.51;100.00
11710;BME280;5911;51.036;6.972;2022-10-16T00:06:10;100232.22;;;15.48;100.00
11710;BME280;5911;51.036;6.972;2022-10-16T00:08:39;100237.38;;;15.42;100.00
11710;BME280;5911;51.036;6.972;2022-10-16T00:11:09;100242.03;;;15.48;100.00
11710;BME280;5911;51.036;6.972;2022-10-16T00:13:39;100243.53;;;15.51;100.00
11710;BME280;5911;51.036;6.972;2022-10-16T00:16:08;100248.66;;;15.52;100.00
11710;BME280;5911;51.036;6.972;2022-10-16T00:18:36;100265.84;;;15.58;100.00
11710;BME280;5911;51.036;6.972;2022-10-16T00:21:06;100260.13;;;15.53;100.00
11710;BME280;5911;51.036;6.972;2022-10-16T00:23:35;100272.75;;;15.51;100.00
11710;BME280;5911;51.036;6.972;2022-10-16T00:26:07;100259.47;;;15.51;100.00
11710;BME280;5911;51.036;6.972;2022-10-16T00:28:36;100270.78;;;15.53;100.00
11710;BME280;5911;51.036;6.972;2022-10-16T00:31:04;100277.47;;;15.57;100.00
11710;BME280;5911;51.036;6.972;2022-10-16T00:33:32;100265.47;;;15.61;100.00
11710;BME280;5911;51.036;6.972;2022-10-16T00:36:00;100267.13;;;15.62;100.00
11710;BME280;5911;51.036;6.972;2022-10-16T00:38:28;100262.34;;;15.57;100.00
11710;BME280;5911;51.036;6.972;2022-10-16T00:40:56;100255.38;;;15.56;100.00
11710;BME280;5911;51.036;6.972;2022-10-16T00:43:38;100261.97;;;15.52;100.00
11710;BME280;5911;51.036;6.972;2022-10-16T00:46:13;100264.13;;;15.48;100.00
11710;BME280;5911;51.036;6.972;2022-10-16T00:48:46;100263.59;;;15.45;100.00
11710;BME280;5911;51.036;6.972;2022-10-16T00:51:18;100247.84;;;15.35;100.00
11710;BME280;5911;51.036;6.972;2022-10-16T00:53:46;100246.50;;;15.31;100.00
11710;BME280;5911;51.036;6.972;2022-10-16T00:56:16;100233.19;;;15.15;100.00
11710;BME280;5911;51.036;6.972;2022-10-16T00:58:45;100253.63;;;15.31;100.00
11710;BME280;5911;51.036;6.972;2022-10-16T01:01:13;100250.50;;;15.27;100.00
11710;BME280;5911;51.036;6.972;2022-10-16T01:03:41;100212.75;;;14.99;100.00
11710;BME280;5911;51.036;6.972;2022-10-16T01:06:19;100249.66;;;15.27;100.00
11710;BME280;5911;51.036;6.972;2022-10-16T01:09:11;100268.44;;;15.25;100.00
11710;BME280;5911;51.036;6.972;2022-10-16T01:11:47;100261.78;;;15.21;100.00
11710;BME280;5911;51.036;6.972;2022-10-16T01:14:22;100239.19;;;15.09;100.00
11710;BME280;5911;51.036;6.972;2022-10-16T01:16:56;100257.28;;;15.22;100.00
11710;BME280;5911;51.036;6.972;2022-10-16T01:19:36;100256.47;;;15.21;100.00
11710;BME280;5911;51.036;6.972;2022-10-16T01:22:08;100276.25;;;15.27;100.00
11710;BME280;5911;51.036;6.972;2022-10-16T01:24:39;100271.56;;;15.29;100.00
11710;BME280;5911;51.036;6.972;2022-10-16T01:27:13;100278.06;;;15.26;100.00
11710;BME280;5911;51.036;6.972;2022-10-16T01:29:49;100278.72;;;15.28;100.00
11710;BME280;5911;51.036;6.972;2022-10-16T01:32:23;100269.25;;;15.26;100.00
11710;BME280;5911;51.036;6.972;2022-10-16T01:34:59;100266.59;;;15.26;100.00
11710;BME280;5911;51.036;6.972;2022-10-16T01:37:33;100231.19;;;15.09;100.00
11710;BME280;5911;51.036;6.972;2022-10-16T01:40:05;100259.78;;;15.31;100.00
11710;BME280;5911;51.036;6.972;2022-10-16T01:42:38;100281.72;;;15.33;100.00
11710;BME280;5911;51.036;6.972;2022-10-16T01:45:07;100295.66;;;15.35;100.00
11710;BME280;5911;51.036;6.972;2022-10-16T01:47:38;100272.94;;;15.41;100.00
11710;BME280;5911;51.036;6.972;2022-10-16T01:50:08;100281.75;;;15.41;100.00
11710;BME280;5911;51.036;6.972;2022-10-16T01:52:39;100278.09;;;15.42;100.00
11710;BME280;5911;51.036;6.972;2022-10-16T01:55:10;100280.06;;;15.40;100.00
11710;BME280;5911;51.036;6.972;2022-10-16T01:57:44;100281.06;;;15.39;100.00
11710;BME280;5911;51.036;6.972;2022-10-16T02:00:14;100286.38;;;15.39;100.00
11710;BME280;5911;51.036;6.972;2022-10-16T02:02:45;100281.06;;;15.39;100.00
11710;BME280;5911;51.036;6.972;2022-10-16T02:05:20;100280.25;;;15.39;100.00
11710;BME280;5911;51.036;6.972;2022-10-16T02:07:49;100280.25;;;15.39;100.00
11710;BME280;5911;51.036;6.972;2022-10-16T02:10:18;100278.41;;;15.39;100.00
11710;BME280;5911;51.036;6.972;2022-10-16T02:12:50;100276.75;;;15.38;100.00
11710;BME280;5911;51.036;6.972;2022-10-16T02:15:21;100287.06;;;15.41;100.00
11710;BME280;5911;51.036;6.972;2022-10-16T02:17:49;100286.88;;;15.43;100.00
11710;BME280;5911;51.036;6.972;2022-10-16T02:20:19;100298.53;;;15.42;100.00
11710;BME280;5911;51.036;6.972;2022-10-16T02:22:50;100298.00;;;15.46;100.00
11710;BME280;5911;51.036;6.972;2022-10-16T02:25:22;100291.84;;;15.46;100.00
11710;BME280;5911;51.036;6.972;2022-10-16T02:27:55;100305.31;;;15.44;100.00
11710;BME280;5911;51.036;6.972;2022-10-16T02:30:29;100302.50;;;15.46;100.00
11710;BME280;5911;51.036;6.972;2022-10-16T02:33:00;100298.69;;;15.48;100.00
11710;BME280;5911;51.036;6.972;2022-10-16T02:35:31;100306.97;;;15.45;100.00
11710;BME280;5911;51.036;6.972;2022-10-16T02:37:59;100305.31;;;15.44;100.00
11710;BME280;5911;51.036;6.972;2022-10-16T02:40:27;100302.50;;;15.46;100.00
11710;BME280;5911;51.036;6.972;2022-10-16T02:42:56;100296.69;;;15.42;100.00
11710;BME280;5911;51.036;6.972;2022-10-16T02:45:24;100301.66;;;15.45;100.00
11710;BME280;5911;51.036;6.972;2022-10-16T02:47:52;100302.66;;;15.44;100.00
11710;BME280;5911;51.036;6.972;2022-10-16T02:50:20;100298.53;;;15.42;100.00
11710;BME280;5911;51.036;6.972;2022-10-16T02:52:48;100271.91;;;15.26;100.00
11710;BME280;5911;51.036;6.972;2022-10-16T02:55:16;100297.69;;;15.41;100.00
11710;BME280;5911;51.036;6.972;2022-10-16T02:57:43;100306.16;;;15.45;100.00
11710;BME280;5911;51.036;6.972;2022-10-16T03:00:16;100306.66;;;15.40;100.00
11710;BME280;5911;51.036;6.972;2022-10-16T03:02:44;100304.84;;;15.41;100.00
11710;BME280;5911;51.036;6.972;2022-10-16T03:05:11;100296.69;;;15.42;100.00
11710;BME280;5911;51.036;6.972;2022-10-16T03:07:39;100306.50;;;15.42;100.00
11710;BME280;5911;51.036;6.972;2022-10-16T03:10:08;100304.16;;;15.39;100.00
11710;BME280;5911;51.036;6.972;2022-10-16T03:12:36;100302.00;;;15.42;100.00
11710;BME280;5911;51.036;6.972;2022-10-16T03:15:04;100299.31;;;15.34;100.00
11710;BME280;5911;51.036;6.972;2022-10-16T03:17:34;100288.88;;;15.41;100.00
11710;BME280;5911;51.036;6.972;2022-10-16T03:20:03;100288.06;;;15.40;100.00
11710;BME280;5911;51.036;6.972;2022-10-16T03:22:31;100281.22;;;15.38;100.00
11710;BME280;5911;51.036;6.972;2022-10-16T03:24:58;100274.56;;;15.34;100.00
11710;BME280;5911;51.036;6.972;2022-10-16T03:27:26;100286.34;;;15.31;100.00
11710;BME280;5911;51.036;6.972;2022-10-16T03:29:55;100285.69;;;15.29;100.00
11710;BME280;5911;51.036;6.972;2022-10-16T03:32:23;100298.97;;;15.29;100.00
11710;BME280;5911;51.036;6.972;2022-10-16T03:34:53;100303.28;;;15.22;100.00
11710;BME280;5911;51.036;6.972;2022-10-16T03:37:22;100298.66;;;15.24;100.00
11710;BME280;5911;51.036;6.972;2022-10-16T03:39:51;100280.34;;;15.13;100.00
11710;BME280;5911;51.036;6.972;2022-10-16T03:42:19;100296.31;;;15.21;100.00
11710;BME280;5911;51.036;6.972;2022-10-16T03:44:47;100299.28;;;15.18;100.00
11710;BME280;5911;51.036;6.972;2022-10-16T03:47:14;100304.28;;;15.21;100.00
11710;BME280;5911;51.036;6.972;2022-10-16T03:49:47;100304.28;;;15.21;100.00
11710;BME280;5911;51.036;6.972;2022-10-16T03:52:16;100294.97;;;15.17;100.00
11710;BME280;5911;51.036;6.972;2022-10-16T03:54:49;100306.09;;;15.21;100.00
11710;BME280;5911;51.036;6.972;2022-10-16T03:57:17;100313.59;;;15.25;100.00
11710;BME280;5911;51.036;6.972;2022-10-16T03:59:45;100321.91;;;15.22;100.00
11710;BME280;5911;51.036;6.972;2022-10-16T04:02:13;100336.19;;;15.21;100.00
11710;BME280;5911;51.036;6.972;2022-10-16T04:04:41;100328.03;;;15.23;100.00
11710;BME280;5911;51.036;6.972;2022-10-16T04:07:08;100322.56;;;15.24;100.00
11710;BME280;5911;51.036;6.972;2022-10-16T04:09:37;100326.91;;;15.25;100.00
11710;BME280;5911;51.036;6.972;2022-10-16T04:12:05;100344.50;;;15.26;100.00
11710;BME280;5911;51.036;6.972;2022-10-16T04:14:33;100348.16;;;15.25;100.00
11710;BME280;5911;51.036;6.972;2022-10-16T04:17:01;100340.84;;;15.27;100.00
11710;BME280;5911;51.036;6.972;2022-10-16T04:19:29;100336.34;;;15.28;100.00
11710;BME280;5911;51.036;6.972;2022-10-16T04:21:57;100337.16;;;15.28;100.00
11710;BME280;5911;51.036;6.972;2022-10-16T04:24:24;100338.34;;;15.26;100.00
11710;BME280;5911;51.036;6.972;2022-10-16T04:26:53;100342.69;;;15.27;100.00
11710;BME280;5911;51.036;6.972;2022-10-16T04:29:21;100344.66;;;15.25;100.00
11710;BME280;5911;51.036;6.972;2022-10-16T04:31:49;100354.78;;;15.21;100.00
11710;BME280;5911;51.036;6.972;2022-10-16T04:34:17;100348.94;;;15.18;100.00
11710;BME280;5911;51.036;6.972;2022-10-16T04:36:47;100348.44;;;15.14;100.00
11710;BME280;5911;51.036;6.972;2022-10-16T04:39:15;100347.59;;;15.13;100.00
11710;BME280;5911;51.036;6.972;2022-10-16T04:41:42;100339.78;;;15.04;100.00
11710;BME280;5911;51.036;6.972;2022-10-16T04:44:11;100341.78;;;15.10;100.00
11710;BME280;5911;51.036;6.972;2022-10-16T04:46:39;100353.09;;;15.12;100.00
11710;BME280;5911;51.036;6.972;2022-10-16T04:49:07;100360.72;;;15.07;100.00
11710;BME280;5911;51.036;6.972;2022-10-16T04:51:35;100352.41;;;15.10;100.00
11710;BME280;5911;51.036;6.972;2022-10-16T04:54:02;100349.75;;;15.10;100.00
11710;BME280;5911;51.036;6.972;2022-10-16T04:56:30;100363.22;;;15.08;100.00
11710;BME280;5911;51.036;6.972;2022-10-16T04:58:58;100374.34;;;15.12;100.00
11710;BME280;5911;51.036;6.972;2022-10-16T05:01:28;100374.66;;;15.09;100.00
11710;BME280;5911;51.036;6.972;2022-10-16T05:03:55;100374.66;;;15.09;100.00
11710;BME280;5911;51.036;6.972;2022-10-16T05:06:23;100379.66;;;15.12;100.00
11710;BME280;5911;51.036;6.972;2022-10-16T05:08:51;100379.16;;;15.08;100.00
11710;BME280;5911;51.036;6.972;2022-10-16T05:11:19;100394.25;;;15.08;100.00
11710;BME280;5911;51.036;6.972;2022-10-16T05:13:46;100386.59;;;15.05;100.00
11710;BME280;5911;51.036;6.972;2022-10-16T05:16:19;100386.75;;;15.03;100.00
11710;BME280;5911;51.036;6.972;2022-10-16T05:18:48;100395.88;;;15.01;100.00
11710;BME280;5911;51.036;6.972;2022-10-16T05:21:22;100394.69;;;14.95;100.00
11710;BME280;5911;51.036;6.972;2022-10-16T05:23:49;100394.50;;;14.89;100.00
11710;BME280;5911;51.036;6.972;2022-10-16T05:26:17;100392.19;;;14.94;100.00
11710;BME280;5911;51.036;6.972;2022-10-16T05:28:45;100397.19;;;14.97;100.00
11710;BME280;5911;51.036;6.972;2022-10-16T05:31:13;100398.69;;;14.99;100.00
11710;BME280;5911;51.036;6.972;2022-10-16T05:33:40;100406.50;;;15.01;100.00
11710;BME280;5911;51.036;6.972;2022-10-16T05:36:12;100403.84;;;15.01;100.00
11710;BME280;5911;51.036;6.972;2022-10-16T05:38:39;100409.97;;;15.01;100.00
11710;BME280;5911;51.036;6.972;2022-10-16T05:41:07;100407.00;;;14.96;100.00
11710;BME280;5911;51.036;6.972;2022-10-16T05:43:35;100413.63;;;15.00;100.00
11710;BME280;5911;51.036;6.972;2022-10-16T05:46:05;100418.09;;;15.00;100.00
11710;BME280;5911;51.036;6.972;2022-10-16T05:48:33;100414.47;;;15.01;100.00
11710;BME280;5911;51.036;6.972;2022-10-16T05:51:03;100418.09;;;15.00;100.00
11710;BME280;5911;51.036;6.972;2022-10-16T05:53:34;100418.78;;;15.02;100.00
11710;BME280;5911;51.036;6.972;2022-10-16T05:56:07;100418.44;;;14.97;100.00
11710;BME280;5911;51.036;6.972;2022-10-16T05:58:37;100434.72;;;15.02;100.00
11710;BME280;5911;51.036;6.972;2022-10-16T06:01:09;100440.19;;;15.00;100.00
11710;BME280;5911;51.036;6.972;2022-10-16T06:03:37;100443.69;;;15.01;100.00
11710;BME280;5911;51.036;6.972;2022-10-16T06:06:09;100445.00;;;14.97;100.00
11710;BME280;5911;51.036;6.972;2022-10-16T06:08:39;100445.31;;;14.94;100.00
11710;BME280;5911;51.036;6.972;2022-10-16T06:11:09;100435.00;;;14.91;100.00
11710;BME280;5911;51.036;6.972;2022-10-16T06:13:37;100456.25;;;14.91;100.00
11710;BME280;5911;51.036;6.972;2022-10-16T06:16:11;100460.19;;;14.87;100.00
11710;BME280;5911;51.036;6.972;2022-10-16T06:18:39;100464.06;;;14.92;100.00
11710;BME280;5911;51.036;6.972;2022-10-16T06:21:08;100464.91;;;14.93;100.00
11710;BME280;5911;51.036;6.972;2022-10-16T06:23:38;100470.22;;;14.93;100.00
11710;BME280;5911;51.036;6.972;2022-10-16T06:26:09;100466.88;;;14.91;100.00
11710;BME280;5911;51.036;6.972;2022-10-16T06:28:37;100473.84;;;14.92;100.00
11710;BME280;5911;51.036;6.972;2022-10-16T06:31:06;100472.88;;;14.93;100.00
11710;BME280;5911;51.036;6.972;2022-10-16T06:33:35;100455.78;;;14.95;100.00
11710;BME280;5911;51.036;6.972;2022-10-16T06:36:05;100461.25;;;14.94;100.00
11710;BME280;5911;51.036;6.972;2022-10-16T06:38:35;100467.75;;;14.99;100.00
11710;BME280;5911;51.036;6.972;2022-10-16T06:41:05;100478.59;;;15.06;100.00
11710;BME280;5911;51.036;6.972;2022-10-16T06:43:33;100483.44;;;15.10;100.00
11710;BME280;5911;51.036;6.972;2022-10-16T06:46:03;100494.25;;;15.17;100.00
11710;BME280;5911;51.036;6.972;2022-10-16T06:48:30;100500.09;;;15.21;100.00
11710;BME280;5911;51.036;6.972;2022-10-16T06:51:00;100499.63;;;15.25;100.00
11710;BME280;5911;51.036;6.972;2022-10-16T06:53:33;100508.63;;;15.32;100.00
11710;BME280;5911;51.036;6.972;2022-10-16T06:56:17;100512.78;;;15.35;100.00
11710;BME280;5911;51.036;6.972;2022-10-16T06:58:46;100516.97;;;15.37;100.00
11710;BME280;5911;51.036;6.972;2022-10-16T07:01:15;100521.81;;;15.42;100.00
11710;BME280;5911;51.036;6.972;2022-10-16T07:03:44;100523.81;;;15.48;100.00
11710;BME280;5911;51.036;6.972;2022-10-16T07:06:17;100522.66;;;15.51;100.00
11710;BME280;5911;51.036;6.972;2022-10-16T07:08:46;100526.00;;;15.53;100.00
11710;BME280;5911;51.036;6.972;2022-10-16T07:11:17;100539.84;;;15.56;100.00
11710;BME280;5911;51.036;6.972;2022-10-16T07:13:46;100535.38;;;15.57;100.00
11710;BME280;5911;51.036;6.972;2022-10-16T07:16:22;100544.66;;;15.61;100.00
11710;BME280;5911;51.036;6.972;2022-10-16T07:18:54;100548.16;;;15.61;100.00
11710;BME280;5911;51.036;6.972;2022-10-16T07:21:27;100553.31;;;15.63;100.00
11710;BME280;5911;51.036;6.972;2022-10-16T07:23:56;100565.63;;;15.64;100.00
11710;BME280;5911;51.036;6.972;2022-10-16T07:26:27;100567.00;;;15.68;100.00
11710;BME280;5911;51.036;6.972;2022-10-16T07:28:56;100576.78;;;15.67;100.00
11710;BME280;5911;51.036;6.972;2022-10-16T07:31:24;100580.59;;;15.65;100.00
11710;BME280;5911;51.036;6.972;2022-10-16T07:33:53;100575.59;;;15.62;100.00
11710;BME280;5911;51.036;6.972;2022-10-16T07:36:21;100579.91;;;15.63;100.00
11710;BME280;5911;51.036;6.972;2022-10-16T07:38:49;100586.22;;;15.62;100.00
11710;BME280;5911;51.036;6.972;2022-10-16T07:41:22;100581.22;;;15.59;100.00
11710;BME280;5911;51.036;6.972;2022-10-16T07:43:52;100591.47;;;15.54;100.00
11710;BME280;5911;51.036;6.972;2022-10-16T07:46:22;100589.81;;;15.53;100.00
11710;BME280;5911;51.036;6.972;2022-10-16T07:48:50;100594.06;;;15.45;100.00
11710;BME280;5911;51.036;6.972;2022-10-16T07:51:20;100595.91;;;15.45;100.00
11710;BME280;5911;51.036;6.972;2022-10-16T07:53:48;100594.41;;;15.42;100.00
11710;BME280;5911;51.036;6.972;2022-10-16T07:56:17;100599.06;;;15.40;100.00
11710;BME280;5911;51.036;6.972;2022-10-16T07:58:45;100607.34;;;15.37;100.00
11710;BME280;5911;51.036;6.972;2022-10-16T08:01:15;100616.69;;;15.41;100.00
11710;BME280;5911;51.036;6.972;2022-10-16T08:03:45;100628.78;;;15.44;100.00
11710;BME280;5911;51.036;6.972;2022-10-16T08:06:14;100628.97;;;15.42;100.00
11710;BME280;5911;51.036;6.972;2022-10-16T08:08:41;100638.81;;;15.50;100.00
11710;BME280;5911;51.036;6.972;2022-10-16T08:11:11;100638.91;;;15.58;100.00
11710;BME280;5911;51.036;6.972;2022-10-16T08:13:38;100636.75;;;15.62;100.00
11710;BME280;5911;51.036;6.972;2022-10-16T08:16:06;100646.78;;;15.68;100.00
11710;BME280;5911;51.036;6.972;2022-10-16T08:18:38;100648.44;;;15.69;100.00
11710;BME280;5911;51.036;6.972;2022-10-16T08:21:07;100646.13;;;15.74;100.00
11710;BME280;5911;51.036;6.972;2022-10-16T08:23:37;100655.31;;;15.79;100.00
11710;BME280;5911;51.036;6.972;2022-10-16T08:26:06;100651.44;;;15.74;100.00
11710;BME280;5911;51.036;6.972;2022-10-16T08:28:35;100670.81;;;15.84;100.00
11710;BME280;5911;51.036;6.972;2022-10-16T08:31:07;100667.84;;;15.87;100.00
11710;BME280;5911;51.036;6.972;2022-10-16T08:33:37;100671.16;;;15.89;100.00
11710;BME280;5911;51.036;6.972;2022-10-16T08:36:06;100682.47;;;15.91;100.00
11710;BME280;5911;51.036;6.972;2022-10-16T08:38:34;100685.13;;;15.91;100.00
11710;BME280;5911;51.036;6.972;2022-10-16T08:41:23;100690.81;;;15.96;100.00
11710;BME280;5911;51.036;6.972;2022-10-16T08:46:54;100696.16;;;16.04;100.00
11710;BME280;5911;51.036;6.972;2022-10-16T08:49:25;100707.88;;;16.11;100.00
11710;BME280;5911;51.036;6.972;2022-10-16T08:51:53;100710.22;;;16.14;100.00
11710;BME280;5911;51.036;6.972;2022-10-16T08:54:29;100709.53;;;16.12;100.00
11710;BME280;5911;51.036;6.972;2022-10-16T08:57:04;100720.06;;;16.22;100.00
11710;BME280;5911;51.036;6.972;2022-10-16T08:59:34;100729.56;;;16.25;100.00
11710;BME280;5911;51.036;6.972;2022-10-16T09:02:17;100721.41;;;16.26;100.00
11710;BME280;5911;51.036;6.972;2022-10-16T09:05:02;100724.22;;;16.25;100.00
11710;BME280;5911;51.036;6.972;2022-10-16T09:07:39;100726.88;;;16.25;100.00
11710;BME280;5911;51.036;6.972;2022-10-16T09:10:19;100731.75;;;16.29;100.00
11710;BME280;5911;51.036;6.972;2022-10-16T09:12:55;100730.25;;;16.35;100.00
11710;BME280;5911;51.036;6.972;2022-10-16T09:15:31;100734.28;;;16.39;100.00
11710;BME280;5911;51.036;6.972;2022-10-16T09:18:05;100727.97;;;16.40;100.00
11710;BME280;5911;51.036;6.972;2022-10-16T09:20:53;100734.63;;;16.44;100.00
11710;BME280;5911;51.036;6.972;2022-10-16T09:23:26;100733.97;;;16.50;100.00
11710;BME280;5911;51.036;6.972;2022-10-16T09:25:55;100726.03;;;16.58;100.00
11710;BME280;5911;51.036;6.972;2022-10-16T09:28:24;100735.44;;;16.70;100.00
11710;BME280;5911;51.036;6.972;2022-10-16T09:30:52;100731.50;;;16.91;100.00
11710;BME280;5911;51.036;6.972;2022-10-16T09:33:23;100736.53;;;17.10;100.00
11710;BME280;5911;51.036;6.972;2022-10-16T09:35:55;100744.72;;;17.25;100.00
11710;BME280;5911;51.036;6.972;2022-10-16T09:38:27;100750.22;;;17.47;100.00
11710;BME280;5911;51.036;6.972;2022-10-16T09:40:56;100762.38;;;17.58;100.00
11710;BME280;5911;51.036;6.972;2022-10-16T09:43:33;100745.56;;;17.66;100.00
11710;BME280;5911;51.036;6.972;2022-10-16T09:46:04;100758.22;;;17.88;100.00
11710;BME280;5911;51.036;6.972;2022-10-16T09:51:04;100761.38;;;18.00;100.00
11710;BME280;5911;51.036;6.972;2022-10-16T09:53:40;100768.53;;;18.07;100.00
11710;BME280;5911;51.036;6.972;2022-10-16T09:56:10;100761.53;;;18.06;100.00
11710;BME280;5911;51.036;6.972;2022-10-16T09:58:49;100774.53;;;18.17;100.00
11710;BME280;5911;51.036;6.972;2022-10-16T10:01:19;100779.47;;;18.37;100.00
11710;BME280;5911;51.036;6.972;2022-10-16T10:03:47;100782.25;;;18.51;100.00
11710;BME280;5911;51.036;6.972;2022-10-16T10:06:21;100778.38;;;18.70;100.00
11710;BME280;5911;51.036;6.972;2022-10-16T10:08:59;100784.56;;;18.71;100.00
11710;BME280;5911;51.036;6.972;2022-10-16T10:11:38;100780.44;;;18.60;100.00
11710;BME280;5911;51.036;6.972;2022-10-16T10:14:08;100760.34;;;18.64;100.00
11710;BME280;5911;51.036;6.972;2022-10-16T10:16:41;100780.75;;;18.96;100.00
11710;BME280;5911;51.036;6.972;2022-10-16T10:19:14;100764.88;;;18.94;100.00
11710;BME280;5911;51.036;6.972;2022-10-16T10:21:43;100779.97;;;19.18;100.00
11710;BME280;5911;51.036;6.972;2022-10-16T10:24:12;100781.03;;;19.32;100.00
11710;BME280;5911;51.036;6.972;2022-10-16T10:26:47;100766.16;;;19.07;100.00
11710;BME280;5911;51.036;6.972;2022-10-16T10:29:23;100757.59;;;18.88;100.00
11710;BME280;5911;51.036;6.972;2022-10-16T10:32:05;100776.63;;;18.93;100.00
11710;BME280;5911;51.036;6.972;2022-10-16T10:34:47;100766.53;;;18.65;100.00
11710;BME280;5911;51.036;6.972;2022-10-16T10:37:35;100787.06;;;18.72;100.00
11710;BME280;5911;51.036;6.972;2022-10-16T10:40:15;100777.94;;;18.58;100.00
11710;BME280;5911;51.036;6.972;2022-10-16T10:42:52;100788.66;;;18.42;100.00
11710;BME280;5911;51.036;6.972;2022-10-16T10:45:26;100766.50;;;18.25;100.00
11710;BME280;5911;51.036;6.972;2022-10-16T10:48:06;100788.16;;;18.39;100.00
11710;BME280;5911;51.036;6.972;2022-10-16T10:50:41;100776.78;;;18.45;100.00
11710;BME280;5911;51.036;6.972;2022-10-16T10:53:21;100766.69;;;18.71;100.00
11710;BME280;5911;51.036;6.972;2022-10-16T10:55:56;100792.78;;;18.61;100.00
11710;BME280;5911;51.036;6.972;2022-10-16T10:58:38;100794.47;;;18.62;100.00
11710;BME280;5911;51.036;6.972;2022-10-16T11:01:12;100788.84;;;19.11;100.00
11710;BME280;5911;51.036;6.972;2022-10-16T11:04:01;100783.06;;;19.30;100.00
11710;BME280;5911;51.036;6.972;2022-10-16T11:06:35;100786.06;;;19.27;100.00
11710;BME280;5911;51.036;6.972;2022-10-16T11:09:12;100790.13;;;19.23;100.00
11710;BME280;5911;51.036;6.972;2022-10-16T11:11:45;100784.06;;;19.06;100.00
11710;BME280;5911;51.036;6.972;2022-10-16T11:14:25;100795.00;;;18.88;100.00
11710;BME280;5911;51.036;6.972;2022-10-16T11:16:57;100795.34;;;18.85;100.00
11710;BME280;5911;51.036;6.972;2022-10-16T11:19:33;100781.38;;;18.75;100.00
11710;BME280;5911;51.036;6.972;2022-10-16T11:22:06;100797.69;;;18.80;100.00
11710;BME280;5911;51.036;6.972;2022-10-16T11:24:45;100793.09;;;18.66;100.00
11710;BME280;5911;51.036;6.972;2022-10-16T11:27:17;100806.13;;;18.69;100.00
11710;BME280;5911;51.036;6.972;2022-10-16T11:29:58;100792.44;;;18.64;100.00
11710;BME280;5911;51.036;6.972;2022-10-16T11:32:33;100809.63;;;18.70;100.00
11710;BME280;5911;51.036;6.972;2022-10-16T11:35:07;100804.44;;;18.68;100.00
11710;BME280;5911;51.036;6.972;2022-10-16T11:37:41;100789.59;;;18.66;100.00
11710;BME280;5911;51.036;6.972;2022-10-16T11:40:21;100805.63;;;18.66;100.00
11710;BME280;5911;51.036;6.972;2022-10-16T11:42:57;100797.44;;;18.67;100.00
11710;BME280;5911;51.036;6.972;2022-10-16T11:45:33;100811.91;;;18.81;100.00
11710;BME280;5911;51.036;6.972;2022-10-16T11:48:13;100821.13;;;18.78;100.00
11710;BME280;5911;51.036;6.972;2022-10-16T11:50:49;100817.13;;;18.74;100.00
11710;BME280;5911;51.036;6.972;2022-10-16T11:53:23;100812.13;;;18.71;100.00
11710;BME280;5911;51.036;6.972;2022-10-16T11:55:59;100822.47;;;18.66;100.00
11710;BME280;5911;51.036;6.972;2022-10-16T11:58:29;100817.13;;;18.66;100.00
11710;BME280;5911;51.036;6.972;2022-10-16T12:01:10;100825.53;;;18.63;100.00
11710;BME280;5911;51.036;6.972;2022-10-16T12:03:46;100819.66;;;18.68;100.00
11710;BME280;5911;51.036;6.972;2022-10-16T12:06:28;100813.78;;;18.72;100.00
11710;BME280;5911;51.036;6.972;2022-10-16T12:08:58;100813.47;;;18.67;100.00
11710;BME280;5911;51.036;6.972;2022-10-16T12:11:38;100815.47;;;18.73;100.00
11710;BME280;5911;51.036;6.972;2022-10-16T12:14:18;100822.44;;;18.82;100.00
11710;BME280;5911;51.036;6.972;2022-10-16T12:16:54;100838.13;;;18.85;100.00
11710;BME280;5911;51.036;6.972;2022-10-16T12:19:24;100834.78;;;18.91;100.00
11710;BME280;5911;51.036;6.972;2022-10-16T12:21:56;100821.75;;;18.88;100.00
11710;BME280;5911;51.036;6.972;2022-10-16T12:24:34;100829.75;;;18.88;100.00
11710;BME280;5911;51.036;6.972;2022-10-16T12:27:06;100830.75;;;18.87;100.00
11710;BME280;5911;51.036;6.972;2022-10-16T12:29:37;100804.72;;;18.81;100.00
11710;BME280;5911;51.036;6.972;2022-10-16T12:32:22;100812.38;;;18.92;100.00
11710;BME280;5911;51.036;6.972;2022-10-16T12:35:19;100789.22;;;18.77;100.00
11710;BME280;5911;51.036;6.972;2022-10-16T12:37:48;100807.38;;;18.89;100.00
11710;BME280;5911;51.036;6.972;2022-10-16T12:40:26;100803.88;;;18.81;100.00
11710;BME280;5911;51.036;6.972;2022-10-16T12:42:57;100802.94;;;18.74;100.00
11710;BME280;5911;51.036;6.972;2022-10-16T12:45:27;100796.09;;;18.71;100.00
11710;BME280;5911;51.036;6.972;2022-10-16T12:47:57;100801.44;;;18.71;100.00
11710;BME280;5911;51.036;6.972;2022-10-16T12:50:33;100794.59;;;18.69;100.00
11710;BME280;5911;51.036;6.972;2022-10-16T12:53:03;100805.44;;;18.67;100.00
11710;BME280;5911;51.036;6.972;2022-10-16T12:55:39;100804.78;;;18.65;100.00
11710;BME280;5911;51.036;6.972;2022-10-16T12:58:22;100808.97;;;18.68;100.00
11710;BME280;5911;51.036;6.972;2022-10-16T13:00:57;100811.13;;;18.72;100.00
11710;BME280;5911;51.036;6.972;2022-10-16T13:03:54;100816.97;;;18.76;100.00
11710;BME280;5911;51.036;6.972;2022-10-16T13:06:33;100811.03;;;18.88;100.00
11710;BME280;5911;51.036;6.972;2022-10-16T13:12:20;100801.88;;;18.83;100.00
11710;BME280;5911;51.036;6.972;2022-10-16T13:15:16;100807.53;;;18.88;100.00
11710;BME280;5911;51.036;6.972;2022-10-16T13:17:53;100811.38;;;18.85;100.00
11710;BME280;5911;51.036;6.972;2022-10-16T13:20:31;100813.84;;;18.95;100.00
11710;BME280;5911;51.036;6.972;2022-10-16T13:23:10;100812.38;;;18.92;100.00